Pagrindinis puslapis
METAR-TAF:

METAR-TAF

Oro uostai :

Kachamarka, Peru

platuma: 07-08S, ilguma: 078-28W, Aukštis: 2620 m

Dabartinis oras

Ataskaita buvo paskelbta 4 valandos ir 58 minutes, ne 23:00 UTC
Vėjas 4 kt iš Rytų/Pietryčių, svyruoja nuo Rytų ir Pietų/Pietryčių
Temperatūra 18°C
Drėgmė 64%
Slėgis 1026 hPa
Matomumas 10 km arba daugiau
Išsisklaidę debesys ne aukštis 2300 ft
Išsisklaidę debesys ne aukštis 4000 ft

METAR: SPJR 282300Z 11004KT 080V150 9999 SCT023 SCT040 18/11 Q1026 RMK PP000

Laikas: 22:58 (03:58 UTC)

Prognozė

Ataskaita buvo paskelbta 11 valandos ir 29 minutes, ne 16:29 UTC
Prognozė galioja nuo 28 metu 18 UTC su 29 metu 18 UTC
Vėjas 8 kt iš Pietų
Matomumas 10 km arba daugiau
Mažai debesys ne aukštis 2500 ft
Su prošvaistėmis ne aukštis 4300 ft
Tikimybė 30% :
Laikinai
nuo 28 metu 20 UTC su 28 metu 22 UTC
lietus
Tapsmas
nuo 28 metu 23 UTC su 29 metu 02 UTC
Vėjas 2 kt nuo kintamojo kryptimis

TAF: SPJR 281629Z 2818/2918 17008KT 9999 FEW025 BKN043 TX24/2819Z TN08/2911Z PROB30 TEMPO 2820/2822 RA BECMG 2823/2902 VRB02KT

Orai ataskaitas ir orų prognozės (METAR, TAF).

turimą stotys yra geltonos ir raudonos taškus žemėlapyje.

Perkelti pele per norėdami pamatyti stoties vardą.

Tada spustelėkite, norėdami matyti oro stebėjimo ir prognozės.

Norėdami pakeisti žemėlapį: spustelėkite ant žalios mygtukų su juodo kryžiaus žemyn,; žalią mygtuką su brūkšneliu, jei norite nutolinti; arba žalių rodyklių gretimoms žemėlapius.


METAR-TAF: